Nearby METAR Reports

 

LELL - Sabadell, Spain
Distance from station: E 19km
Actualización: 07/12/2022 01:00
Mist, Despejado
Mist, Despejado
 Viento del calm
Viento: Calma
Temperatura: 6°C
Rocío: 6°C
Humedad: 100%
Barómetro: 1015 hPa
Resumen: Mist
Clouds: Despejado
Visibility: 4 km
2022/12/07 00:00 LELL 070000Z AUTO 00000KT 3600 BR NCD 06/06 Q1015
LEBL - Barcelona Airpor, Spain
Distance from station: SSE 30km
Actualización: 07/12/2022 01:00
Parcialmente nuboso
Parcialmente nuboso
 Viento del NO
Viento: NO 11 km/h
Temperatura: 9°C
Sensación: 7°C
Rocío: 8°C
Humedad: 94%
Barómetro: 1015 hPa
Clouds: Parcialmente nuboso
Visibility: 6 km
2022/12/07 00:00 LEBL 070000Z 31006KT 6000 NSC 09/08 Q1015 NOSIG
 
LERS - Reus (civ/Mil), Spain
Distance from station: SO 71km
Actualización: 07/12/2022 01:00
Parcialmente nuboso
Parcialmente nuboso
 Viento del NNE
Viento: NNE 7 km/h
Temperatura: 10°C
Sensación: 9°C
Rocío: 8°C
Humedad: 88%
Barómetro: 1015 hPa
Clouds: Parcialmente nuboso
Visibility: 8 km
2022/12/07 00:00 LERS 070000Z AUTO 02004KT 350V050 8000 NSC 10/08 Q1015
LEGE - Gerona/Costa Bra, Spain
Distance from station: ENE 86km
Actualización: 07/12/2022 01:00
Niebla, Cubierto
Niebla, Cubierto
 Viento del calm
Viento: Calma
Temperatura: 6°C
Rocío: 6°C
Humedad: 100%
Barómetro: 1015 hPa
Resumen: Niebla
Clouds: Cubierto
Visibility: 1 km
Cloud details: Cubierto 122 m
2022/12/07 00:00 LEGE 070000Z 00000KT 0500 R19/0800U R01/1000U FG VV004 06/06 Q1015
 
LESU - Pirineus/La Seu, Spain
Distance from station: NNO 101km
Actualización: 05/12/2022 17:00
NOT Current
Muy nuboso
Muy nuboso
 Viento del varies
Viento: varies 2 km/h
Temperatura: 5°C
Rocío: 1°C
Humedad: 76%
Barómetro: 1017 hPa
Clouds: Muy nuboso
Visibility: 10 km
Cloud details: Muy nuboso 1707 m
2022/12/05 16:00 LESU 051600Z VRB01KT 9999 BKN056 05/01 Q1017
LEDA - Lleida/Alguaire, Spain
Distance from station: ONO 114km
Actualización: 07/12/2022 01:00
Niebla, Cubierto
Niebla, Cubierto
 Viento del varies
Viento: varies 4 km/h
Temperatura: 6°C
Rocío: 6°C
Humedad: 100%
Barómetro: 1016 hPa
Resumen: Niebla
Clouds: Cubierto
Visibility: 0 km
Cloud details: Cubierto 30 m
2022/12/07 00:00 LEDA 070000Z AUTO VRB02KT 0000 R31/0150N FG VV001 06/06 Q1016